createdAt,value
2019-05-13T07:33:13.708Z,8.40
2019-05-13T07:38:25.325Z,8.10
2019-05-13T07:41:08.028Z,8.10
2019-05-13T07:43:36.222Z,8.10
2019-05-13T07:46:05.425Z,8.10
2019-05-13T07:48:34.316Z,8.10
2019-05-13T07:51:04.634Z,8.00
2019-05-13T07:53:33.938Z,8.10
2019-05-13T07:56:02.930Z,8.10
2019-05-13T07:58:36.931Z,8.20
2019-05-13T08:01:02.637Z,8.10
2019-05-13T08:03:31.878Z,8.10
2019-05-13T08:06:21.976Z,8.20
2019-05-13T08:08:52.348Z,8.30
2019-05-13T08:11:22.397Z,8.30
2019-05-13T08:13:52.203Z,8.20
2019-05-13T08:16:22.302Z,8.20
2019-05-13T08:18:52.353Z,8.30
2019-05-13T08:21:21.685Z,8.30
2019-05-13T08:23:52.536Z,8.40
2019-05-13T08:26:21.780Z,8.40
2019-05-13T08:29:00.341Z,8.30
2019-05-13T08:31:21.836Z,8.30
2019-05-13T08:33:51.851Z,8.40
2019-05-13T08:36:23.257Z,8.40
2019-05-13T08:38:52.596Z,8.50
2019-05-13T08:41:23.512Z,8.40
2019-05-13T08:43:52.507Z,8.50
2019-05-13T08:46:21.948Z,8.60
2019-05-13T08:48:51.884Z,8.50
2019-05-13T08:51:22.050Z,8.50
2019-05-13T08:53:51.757Z,8.60
2019-05-13T08:56:21.815Z,8.50
2019-05-13T08:58:52.156Z,8.50
2019-05-13T09:01:42.651Z,8.40
2019-05-13T09:04:11.873Z,8.40
2019-05-13T09:06:42.023Z,8.30
2019-05-13T09:09:11.654Z,8.30
2019-05-13T09:11:42.175Z,8.30
2019-05-13T09:14:11.392Z,8.20
2019-05-13T09:16:41.911Z,8.30
2019-05-13T09:19:15.734Z,8.30
2019-05-13T09:21:42.378Z,8.30
2019-05-13T09:24:23.935Z,8.40
2019-05-13T09:26:42.273Z,8.50
2019-05-13T09:29:11.977Z,8.40
2019-05-13T09:31:41.690Z,8.40
2019-05-13T09:34:12.122Z,8.50
2019-05-13T09:36:41.813Z,8.60
2019-05-13T09:39:12.664Z,8.60
2019-05-13T09:41:44.455Z,8.60
2019-05-13T09:44:12.509Z,8.60
2019-05-13T09:46:42.509Z,8.70
2019-05-13T09:49:19.139Z,8.50
2019-05-13T09:51:42.223Z,8.40
2019-05-13T09:54:11.800Z,8.40
2019-05-13T09:56:41.435Z,8.30
2019-05-13T09:59:11.688Z,8.30
2019-05-13T10:01:42.447Z,8.30
2019-05-13T10:04:11.997Z,8.40
2019-05-13T10:06:42.092Z,8.30
2019-05-13T10:09:12.508Z,8.20
2019-05-13T10:11:41.852Z,8.20
2019-05-13T10:14:11.592Z,8.10
2019-05-13T10:16:42.512Z,8.10
2019-05-13T10:19:12.677Z,8.10
2019-05-13T10:21:42.305Z,8.20
2019-05-13T10:24:12.515Z,8.20
2019-05-13T10:26:42.883Z,8.10
2019-05-13T10:29:12.570Z,8.10
2019-05-13T10:31:42.074Z,8.20
2019-05-13T10:34:13.625Z,8.20
2019-05-13T10:36:42.394Z,8.20
2019-05-13T10:39:22.293Z,8.10
2019-05-13T10:41:52.359Z,8.10
2019-05-13T10:44:21.276Z,8.20
2019-05-13T10:46:52.270Z,8.10
2019-05-13T10:49:22.121Z,8.10
2019-05-13T10:51:52.638Z,8.00
2019-05-13T10:54:21.935Z,8.00
2019-05-13T10:56:53.136Z,7.90
2019-05-13T10:59:22.983Z,7.90
2019-05-13T11:01:51.818Z,7.80
2019-05-13T11:04:22.086Z,7.90
2019-05-13T11:06:52.482Z,7.90
2019-05-13T11:09:22.192Z,8.00
2019-05-13T11:11:52.745Z,8.00
2019-05-13T11:14:22.184Z,8.00
2019-05-13T11:19:23.215Z,7.80
2019-05-13T11:21:52.362Z,7.90
2019-05-13T11:24:22.723Z,7.90
2019-05-13T11:26:53.060Z,7.90
2019-05-13T11:29:22.894Z,8.00
2019-05-13T11:31:53.043Z,7.90
2019-05-13T11:34:22.606Z,7.90
2019-05-13T11:39:34.360Z,7.90
2019-05-13T11:42:03.238Z,7.90
2019-05-13T11:44:32.435Z,8.00
2019-05-13T11:47:02.325Z,8.00
2019-05-13T11:49:31.967Z,7.90
2019-05-13T11:52:02.661Z,7.90
2019-05-13T11:54:31.392Z,7.80
2019-05-13T11:57:02.760Z,7.90
2019-05-13T11:59:32.929Z,8.00
2019-05-13T12:02:04.558Z,8.00
2019-05-13T12:04:34.443Z,7.90
2019-05-13T12:07:03.543Z,7.90
2019-05-13T12:09:51.976Z,7.90
2019-05-13T12:12:23.161Z,7.90
2019-05-13T12:15:21.038Z,7.80
2019-05-13T12:17:22.725Z,7.90
2019-05-13T12:19:54.281Z,7.80
2019-05-13T12:22:22.919Z,7.80
2019-05-13T12:25:13.769Z,7.80
2019-05-13T12:27:42.082Z,7.80
2019-05-13T12:30:12.491Z,7.80
2019-05-13T12:32:43.696Z,7.80
2019-05-13T12:35:13.331Z,7.80
2019-05-13T12:37:42.641Z,7.80
2019-05-13T12:40:11.709Z,7.70
2019-05-13T12:42:46.214Z,7.80
2019-05-13T12:45:14.408Z,7.70
2019-05-13T12:47:43.496Z,7.70
2019-05-13T12:50:13.660Z,7.80
2019-05-13T12:52:43.919Z,7.70
2019-05-13T12:55:14.087Z,7.70
2019-05-13T12:57:43.189Z,7.80
2019-05-13T13:00:33.117Z,7.80
2019-05-13T13:03:02.372Z,7.70
2019-05-13T13:05:34.402Z,7.70
2019-05-13T13:08:18.542Z,7.70
2019-05-13T13:10:34.492Z,7.70
2019-05-13T13:13:03.096Z,7.80
2019-05-13T13:15:38.227Z,7.70
2019-05-13T13:18:02.743Z,7.70
2019-05-13T13:20:33.558Z,7.70
2019-05-13T13:23:04.421Z,7.70
2019-05-13T13:25:33.893Z,7.70
2019-05-13T13:28:11.063Z,7.80
2019-05-13T13:30:35.006Z,7.80
2019-05-13T13:33:04.003Z,7.80
2019-05-13T13:35:33.739Z,7.80
2019-05-13T13:38:04.138Z,7.80
2019-05-13T13:40:35.162Z,7.80
2019-05-13T13:43:05.382Z,7.80
2019-05-13T13:46:05.777Z,7.80
2019-05-13T13:48:05.425Z,7.80
2019-05-13T13:50:34.438Z,7.80
2019-05-13T13:53:03.430Z,7.80
2019-05-13T13:55:32.453Z,7.70
2019-05-13T13:58:02.465Z,7.70
2019-05-13T14:00:40.594Z,7.80
2019-05-13T14:03:06.402Z,7.80
2019-05-13T14:05:36.239Z,7.90
2019-05-13T14:06:28.716Z,7.70
2019-05-13T14:07:00.581Z,8.00
2019-05-13T14:08:04.249Z,7.90
2019-05-13T14:10:33.140Z,7.90
2019-05-13T14:13:04.738Z,7.90
2019-05-13T14:15:34.434Z,7.90
2019-05-13T14:18:03.086Z,7.90
2019-05-13T14:20:32.696Z,8.00
2019-05-13T14:23:21.463Z,8.00
2019-05-13T14:25:53.012Z,7.90
2019-05-13T14:28:22.933Z,7.90
2019-05-13T14:30:51.721Z,7.80
2019-05-13T14:33:20.804Z,7.90
2019-05-13T14:35:49.687Z,7.90
2019-05-13T14:38:18.583Z,7.80
2019-05-13T14:40:47.653Z,7.80
2019-05-13T14:43:16.876Z,7.80
2019-05-13T14:45:45.875Z,7.80
2019-05-13T14:48:15.657Z,7.90
2019-05-13T14:50:44.709Z,7.80
2019-05-13T14:53:13.772Z,7.90
2019-05-13T14:55:42.764Z,7.90
2019-05-13T14:58:11.660Z,7.80
2019-05-13T15:00:42.120Z,7.90
2019-05-13T15:03:13.103Z,7.80
2019-05-13T15:05:42.964Z,7.80
2019-05-13T15:08:13.357Z,7.90
2019-05-13T15:10:42.656Z,7.90
2019-05-13T15:13:11.760Z,7.90
2019-05-13T15:15:42.203Z,8.00
2019-05-13T15:18:11.284Z,8.00
2019-05-13T15:20:41.702Z,7.90
2019-05-13T15:23:11.983Z,7.90
2019-05-13T15:25:42.021Z,7.90
2019-05-13T15:28:11.984Z,8.00
2019-05-13T15:30:42.116Z,7.90
2019-05-13T15:33:11.289Z,7.90
2019-05-13T15:35:42.007Z,7.80
2019-05-13T15:38:12.585Z,7.90
2019-05-13T15:40:41.745Z,7.90
2019-05-13T15:43:11.638Z,7.90
2019-05-13T15:45:42.515Z,7.90
2019-05-13T15:48:11.690Z,7.90
2019-05-13T15:50:42.217Z,7.80
2019-05-13T15:53:12.787Z,7.70
2019-05-13T15:55:42.152Z,7.80
2019-05-13T15:58:11.779Z,7.80
2019-05-13T16:00:42.377Z,7.90
2019-05-13T16:03:30.642Z,7.90
2019-05-13T16:06:01.661Z,7.80
2019-05-13T16:08:31.833Z,7.80
2019-05-13T16:11:02.162Z,7.80
2019-05-13T16:13:31.865Z,7.80
2019-05-13T16:16:01.686Z,7.90
2019-05-13T16:18:31.673Z,7.90
2019-05-13T16:21:01.727Z,7.80
2019-05-13T16:23:32.476Z,7.80
2019-05-13T16:26:02.961Z,7.90
2019-05-13T16:28:32.847Z,7.90
2019-05-13T16:31:02.411Z,7.90
2019-05-13T16:33:32.686Z,7.90
2019-05-13T16:36:02.614Z,7.90
2019-05-13T16:38:32.898Z,7.90
2019-05-13T16:41:02.430Z,7.90
2019-05-13T16:43:32.081Z,7.80
2019-05-13T16:46:01.331Z,7.80
2019-05-13T16:48:32.233Z,7.80
2019-05-13T16:51:00.879Z,7.90
2019-05-13T16:53:31.429Z,7.80
2019-05-13T16:56:01.739Z,7.90
2019-05-13T16:58:32.448Z,7.80
2019-05-13T17:01:02.512Z,7.80
2019-05-13T17:03:32.114Z,7.80
2019-05-13T17:06:02.099Z,7.80
2019-05-13T17:08:31.858Z,7.80
2019-05-13T17:11:02.234Z,7.90
2019-05-13T17:13:31.721Z,7.80
2019-05-13T17:16:01.627Z,7.80
2019-05-13T17:18:32.371Z,7.80
2019-05-13T17:21:01.778Z,7.90
2019-05-13T17:23:30.836Z,7.90
2019-05-13T17:26:01.917Z,7.90
2019-05-13T17:28:31.771Z,7.90
2019-05-13T17:31:02.213Z,7.80
2019-05-13T17:33:31.929Z,7.70
2019-05-13T17:36:01.982Z,7.80
2019-05-13T17:38:32.439Z,7.70
2019-05-13T17:41:02.661Z,7.70
2019-05-13T17:43:32.154Z,7.70
2019-05-13T17:46:01.769Z,7.70
2019-05-13T17:48:32.925Z,7.70
2019-05-13T17:51:01.556Z,7.60
2019-05-13T17:53:32.576Z,7.60
2019-05-13T17:56:02.370Z,7.60
2019-05-13T17:58:31.828Z,7.60
2019-05-13T18:01:01.627Z,7.60
2019-05-13T18:03:32.125Z,7.60
2019-05-13T18:06:02.382Z,7.60
2019-05-13T18:08:32.128Z,7.60
2019-05-13T18:11:02.381Z,7.70
2019-05-13T18:13:32.019Z,7.60
2019-05-13T18:16:02.440Z,7.60
2019-05-13T18:18:42.534Z,7.60
2019-05-13T18:21:02.802Z,7.60
2019-05-13T18:23:31.779Z,7.60
2019-05-13T18:26:01.911Z,7.50
2019-05-13T18:28:31.569Z,7.50
2019-05-13T18:31:01.771Z,7.60
2019-05-13T18:33:31.944Z,7.60
2019-05-13T18:36:01.732Z,7.50
2019-05-13T18:38:31.309Z,7.40
2019-05-13T18:41:01.812Z,7.50
2019-05-13T18:43:32.148Z,7.50
2019-05-13T18:46:02.078Z,7.50
2019-05-13T18:48:32.542Z,7.40
2019-05-13T18:51:01.507Z,7.30
2019-05-13T18:53:32.068Z,7.40
2019-05-13T18:56:02.110Z,7.40
2019-05-13T18:58:31.741Z,7.40
2019-05-13T19:01:01.429Z,7.30
2019-05-13T19:03:32.303Z,7.30
2019-05-13T19:06:01.172Z,7.30
2019-05-13T19:08:32.073Z,7.30
2019-05-13T19:11:01.191Z,7.30
2019-05-13T19:13:32.539Z,7.20
2019-05-13T19:16:02.490Z,7.30
2019-05-13T19:18:32.191Z,7.20
2019-05-13T19:21:01.896Z,7.30
2019-05-13T19:23:31.479Z,7.20
2019-05-13T19:26:01.906Z,7.20
2019-05-13T19:28:31.761Z,7.20
2019-05-13T19:31:02.317Z,7.20
2019-05-13T19:33:31.466Z,7.20
2019-05-13T19:36:01.321Z,7.30
2019-05-13T19:38:31.870Z,7.20
2019-05-13T19:41:01.860Z,7.10
2019-05-13T19:43:31.489Z,7.10
2019-05-13T19:46:01.597Z,7.20
2019-05-13T19:48:32.650Z,7.20
2019-05-13T19:51:01.692Z,7.20
2019-05-13T19:53:31.982Z,7.20
2019-05-13T19:56:01.566Z,7.10
2019-05-13T19:58:32.324Z,7.20
2019-05-13T20:01:01.186Z,7.10
2019-05-13T20:03:31.767Z,7.10
2019-05-13T20:06:02.235Z,7.00
2019-05-13T20:08:32.035Z,6.90
2019-05-13T20:11:02.100Z,6.90
2019-05-13T20:13:31.323Z,6.90
2019-05-13T20:16:01.468Z,6.90
2019-05-13T20:18:32.095Z,6.80
2019-05-13T20:21:01.384Z,6.80
2019-05-13T20:23:32.109Z,6.70
2019-05-13T20:26:00.918Z,6.80
2019-05-13T20:28:31.653Z,6.80
2019-05-13T20:31:01.816Z,6.70
2019-05-13T20:33:31.994Z,6.70
2019-05-13T20:36:01.700Z,6.80
2019-05-13T20:38:31.695Z,6.70
2019-05-13T20:41:02.558Z,6.70
2019-05-13T20:43:32.841Z,6.70
2019-05-13T20:46:02.237Z,6.70
2019-05-13T20:48:31.914Z,6.70
2019-05-13T20:51:02.631Z,6.70
2019-05-13T20:53:31.803Z,6.60
2019-05-13T20:56:01.690Z,6.70
2019-05-13T20:58:31.801Z,6.70
2019-05-13T21:01:02.383Z,6.70
2019-05-13T21:03:31.792Z,6.60
2019-05-13T21:06:00.860Z,6.60
2019-05-13T21:08:31.913Z,6.60
2019-05-13T21:11:21.174Z,6.60
2019-05-13T21:13:51.707Z,6.60
2019-05-13T21:16:21.869Z,6.70
2019-05-13T21:18:51.022Z,6.70
2019-05-13T21:21:41.511Z,6.70
2019-05-13T21:24:09.811Z,6.70
2019-05-13T21:26:38.786Z,6.60
2019-05-13T21:29:07.780Z,6.60
2019-05-13T21:31:36.871Z,6.60
2019-05-13T21:34:05.764Z,6.50
2019-05-13T21:36:34.589Z,6.60
2019-05-13T21:39:05.287Z,6.50
2019-05-13T21:41:34.488Z,6.60
2019-05-13T21:44:04.908Z,6.50
2019-05-13T21:46:34.614Z,6.60
2019-05-13T21:49:03.721Z,6.60
2019-05-13T21:51:32.713Z,6.60
2019-05-13T21:54:01.587Z,6.60
2019-05-13T21:56:31.988Z,6.60
2019-05-13T21:59:01.513Z,6.70
2019-05-13T22:01:42.609Z,6.70
2019-05-13T22:04:12.402Z,6.70
2019-05-13T22:06:41.630Z,6.60
2019-05-13T22:09:11.897Z,6.60
2019-05-13T22:11:42.025Z,6.70
2019-05-13T22:14:20.168Z,6.70
2019-05-13T22:16:49.067Z,6.70
2019-05-13T22:19:18.056Z,6.70
2019-05-13T22:21:47.045Z,6.70
2019-05-13T22:24:16.149Z,6.70
2019-05-13T22:26:45.034Z,6.70
2019-05-13T22:29:14.026Z,6.80
2019-05-13T22:31:43.451Z,6.80
2019-05-13T22:34:12.521Z,6.70
2019-05-13T22:36:41.410Z,6.70
2019-05-13T22:39:11.554Z,6.70
2019-05-13T22:41:42.134Z,6.70
2019-05-13T22:44:11.806Z,6.70
2019-05-13T22:47:02.256Z,6.70
2019-05-13T22:49:31.192Z,6.70
2019-05-13T22:52:00.252Z,6.70
2019-05-13T22:54:31.623Z,6.70
2019-05-13T22:56:59.867Z,6.70
2019-05-13T22:59:28.767Z,6.70
2019-05-13T23:01:57.662Z,6.70
2019-05-13T23:04:26.656Z,6.70
2019-05-13T23:06:55.648Z,6.80
2019-05-13T23:09:24.621Z,6.80
2019-05-13T23:11:53.636Z,6.80
2019-05-13T23:14:22.627Z,6.80
2019-05-13T23:16:51.621Z,6.80
2019-05-13T23:19:21.678Z,6.80
2019-05-13T23:21:51.134Z,6.80
2019-05-13T23:24:21.826Z,6.80
2019-05-13T23:26:51.521Z,6.80
2019-05-13T23:29:21.426Z,6.80
2019-05-13T23:31:52.048Z,6.80
2019-05-13T23:34:22.338Z,6.80
2019-05-13T23:36:51.692Z,6.80
2019-05-13T23:39:21.646Z,6.80
2019-05-13T23:41:52.204Z,6.80
2019-05-13T23:44:27.130Z,6.80
2019-05-13T23:46:51.828Z,6.80
2019-05-13T23:49:21.175Z,6.80
2019-05-13T23:51:52.077Z,6.80
2019-05-13T23:54:21.469Z,6.80
2019-05-13T23:56:50.562Z,6.80
2019-05-13T23:59:21.768Z,6.80
